Terminal Aerodrome Forecast
Issued by NWS

Home | Current Version | Previous Version | Text Only | Print | Product List | Glossary On
Versions: 1 2 3 4 5 6 7 8 9 10 11 12 13
000
FTUS45 KCYS 191310 AAA
TAFRWL
TAF AMD
KRWL 191310Z 1913/2012 26018G26KT P6SM BKN200
     FM191600 26028G38KT P6SM -SHRA SCT025 BKN035
     FM192300 26020G30KT P6SM OVC050
     FM200400 25035G45KT P6SM BKN050
     FM200700 25018G28KT P6SM BKN035=

USA.gov is the U.S. government's official web portal to all federal, state and local government web resources and services.